Albion, PA

5:58 AM EDT on September 18, 2014 (GMT -0400)
Port Meadville | Change Station
CLOSE
Current Station
Airport
Location: Meadville,
Elevation: 1401 ft
Nearby Weather Stations

Elev 1401 ft 41.63 °N, 80.21 °W | Updated 5 minutes ago

Clear
Clear
46 °F
Feels Like 46 °F
N
0
Wind Variable Wind from North

Today
High -- | Low -- °F
--% Chance of Precip.
Yesterday
High -- | Low -- °F
Precip. -- in
7:04 AM 7:25 PM
Waning Crescent, 28% visible
Pressure 30.04 in
Visibility 7.0 miles
Clouds Clear
Dew Point 44 °F
Humidity 93%
Rainfall 0.00 in
Snow Depth Not available.
UV 0 out of 12
Pollen 4.10 out of 12
Air Quality Not available.
Flu Activity Not available.
METAR KGKJ 180953Z AUTO 00000KT 7SM CLR 08/07 A3003 RMK AO2 SLP171 T00780067 TSNO

More Conditions Fewer Conditions

Pressure 30.04 in
Visibility 7.0 miles
Clouds Clear
Dew Point 44 °F
Humidity 93%
Rainfall 0.00 in
Snow Depth Not available.
UV 0 out of 12
Pollen 4.10 out of 12
Air Quality Not available.
Flu Activity Not available.
METAR KGKJ 180953Z AUTO 00000KT 7SM CLR 08/07 A3003 RMK AO2 SLP171 T00780067 TSNO

More Conditions Fewer Conditions

10-Day Weather Forecast

Almanac

Astronomy

Sep. 18, 2014 Rise Set
Actual Time 7:04 AM EDT 7:25 PM EDT
Civil Twilight 6:36 AM EDT 7:53 PM EDT
Nautical Twilight 6:04 AM EDT 8:26 PM EDT
Astronomical Twilight 5:30 AM EDT 8:59 PM EDT
Moon 1:51 AM EDT 4:19 PM EDT
Length of Visible Light 13h 16m
Length of Day
12h 21m
Tomorrow will be 2m 47s shorter.
Waning Crescent, 28% of the Moon is Illuminated
Today
Waning Crescent
Sep 24
New
Oct 1
First Quarter
Oct 8
Full
Oct 15
Last Quarter

Today's Extremes

State Highs State Lows

Community

WunderPhotos

Upload Photos

1,754,312 photos uploaded!

Nearby

Snow Depth

Station Depth Elevation
No new snow has been reported.

Earthquake Activity

City Distance Mag. Time & Date
No recent earthquake activity has been reported nearby.
Minimum magnitude displayed is 2.5.

Coastal Water Temperatures

Place Temperature
Fairport, OH 64.9 °F
Buffalo, NY 68.0 °F

Nearby Weather Stations